Time;durP1;ratioP1;P1;durP2;ratioP2;P2;SDS_P1;SDS_P2;PMS_P1;PMS_P2;Temp;Humidity;BMP_temperature;BMP_pressure;BME280_temperature;BME280_humidity;BME280_pressure;Samples;Min_cycle;Max_cycle;Signal;HPM_P1;HPM_P2
2023/10/01 00:01:35;;;;;;;11.43;4.80;;;15.20;99.90;;;;;;4982386;28;20046;-33
2023/10/01 00:04:04;;;;;;;9.60;4.05;;;15.20;99.90;;;;;;4975562;28;20050;-34
2023/10/01 00:06:30;;;;;;;12.50;5.55;;;15.20;99.90;;;;;;4972034;28;20054;-34
2023/10/01 00:08:57;;;;;;;9.63;4.55;;;15.20;99.90;;;;;;4986081;28;20352;-35
2023/10/01 00:11:24;;;;;;;7.65;4.10;;;15.10;99.90;;;;;;4983318;28;20452;-35
2023/10/01 00:13:49;;;;;;;10.48;4.93;;;15.10;99.90;;;;;;4981436;28;20523;-35
2023/10/01 00:16:15;;;;;;;8.40;4.22;;;15.10;99.90;;;;;;4985299;28;20054;-35
2023/10/01 00:18:41;;;;;;;11.45;4.30;;;15.10;99.90;;;;;;4983304;28;20058;-35
2023/10/01 00:21:07;;;;;;;9.68;3.97;;;15.00;99.90;;;;;;4986175;28;20050;-35
2023/10/01 00:23:33;;;;;;;14.15;4.78;;;15.00;99.90;;;;;;4981157;28;20050;-36
2023/10/01 00:25:59;;;;;;;10.35;4.13;;;15.00;99.90;;;;;;4979757;28;20527;-35
2023/10/01 00:28:24;;;;;;;10.90;4.13;;;15.00;99.90;;;;;;4976921;28;20069;-35
2023/10/01 00:30:50;;;;;;;9.20;4.25;;;15.00;99.90;;;;;;4985066;28;20051;-35
2023/10/01 00:33:16;;;;;;;7.45;3.95;;;15.00;99.90;;;;;;4969316;28;20076;-33
2023/10/01 00:35:42;;;;;;;9.52;4.15;;;15.10;99.90;;;;;;4981907;28;20090;-34
2023/10/01 00:38:08;;;;;;;11.60;4.60;;;15.10;99.90;;;;;;4980748;28;20124;-35
2023/10/01 00:40:35;;;;;;;9.20;4.85;;;15.10;99.90;;;;;;4980280;28;20550;-35
2023/10/01 00:43:03;;;;;;;9.27;4.78;;;15.10;99.90;;;;;;4980112;28;20070;-35
2023/10/01 00:45:30;;;;;;;8.98;4.97;;;15.10;99.90;;;;;;4977276;28;20043;-35
2023/10/01 00:48:02;;;;;;;10.45;5.55;;;15.10;99.90;;;;;;4980871;28;20073;-34
2023/10/01 00:50:28;;;;;;;11.60;5.70;;;15.10;99.90;;;;;;4991032;28;20058;-35
2023/10/01 00:52:56;;;;;;;11.25;5.50;;;15.10;99.90;;;;;;4975575;28;20408;-35
2023/10/01 00:55:22;;;;;;;8.65;4.70;;;15.00;99.90;;;;;;4988534;28;20839;-36
2023/10/01 00:57:49;;;;;;;10.48;4.70;;;15.10;99.90;;;;;;4989960;28;20133;-36
2023/10/01 01:00:16;;;;;;;9.95;5.10;;;15.00;99.90;;;;;;4986987;28;20058;-38
2023/10/01 01:05:57;;;;;;;9.90;4.55;;;15.10;99.90;;;;;;4995733;28;20511;-43
2023/10/01 01:08:34;;;;;;;8.50;4.60;;;15.10;99.90;;;;;;4966649;28;20129;-35
2023/10/01 01:11:03;;;;;;;7.65;4.35;;;15.10;99.90;;;;;;4988544;28;20046;-35
2023/10/01 01:13:30;;;;;;;9.63;4.95;;;15.10;99.90;;;;;;4988845;28;20046;-35
2023/10/01 01:15:57;;;;;;;10.57;5.05;;;15.10;99.90;;;;;;4990544;28;20061;-36
2023/10/01 01:18:26;;;;;;;11.80;4.57;;;15.10;99.90;;;;;;4987516;28;20046;-39
2023/10/01 01:20:58;;;;;;;7.35;5.07;;;15.10;99.90;;;;;;5007394;28;20073;-35
2023/10/01 01:23:24;;;;;;;8.32;4.25;;;15.10;99.90;;;;;;4988161;28;20137;-35
2023/10/01 01:25:52;;;;;;;9.77;5.18;;;15.10;99.90;;;;;;4989614;28;20069;-34
2023/10/01 01:28:27;;;;;;;9.27;4.90;;;15.10;99.90;;;;;;4989220;28;20528;-40
2023/10/01 01:30:53;;;;;;;12.93;5.35;;;15.10;99.90;;;;;;4970394;28;20555;-34
2023/10/01 01:33:26;;;;;;;9.38;4.97;;;15.10;99.90;;;;;;4987716;28;20077;-34
2023/10/01 01:35:54;;;;;;;14.50;5.20;;;15.10;99.90;;;;;;4986041;28;20488;-35
2023/10/01 01:38:23;;;;;;;8.65;5.03;;;15.10;99.90;;;;;;4989223;28;20877;-36
2023/10/01 01:40:51;;;;;;;7.60;4.60;;;15.10;99.90;;;;;;4988367;28;20058;-35
2023/10/01 01:43:23;;;;;;;8.25;4.75;;;15.10;99.90;;;;;;4999199;28;20197;-35
2023/10/01 01:45:55;;;;;;;9.80;5.20;;;15.00;99.90;;;;;;4987730;28;20046;-34
2023/10/01 01:48:30;;;;;;;12.25;5.75;;;15.00;99.90;;;;;;4987604;28;20050;-35
2023/10/01 01:51:00;;;;;;;9.07;5.05;;;15.10;99.90;;;;;;4987597;28;20476;-35
2023/10/01 01:53:41;;;;;;;11.20;4.63;;;15.00;99.90;;;;;;4988104;28;20062;-35
2023/10/01 01:56:08;;;;;;;9.07;4.90;;;15.00;99.90;;;;;;4985342;28;20057;-35
2023/10/01 01:58:35;;;;;;;9.63;4.90;;;15.00;99.90;;;;;;4989440;28;20131;-35
2023/10/01 02:01:08;;;;;;;10.43;5.18;;;15.00;99.90;;;;;;4988736;28;20125;-35
2023/10/01 02:03:37;;;;;;;;;;;15.10;99.90;;;;;;4986805;28;20061;-35
2023/10/01 02:06:06;;;;;;;9.98;5.45;;;15.10;99.90;;;;;;5000335;28;19927;-34
2023/10/01 02:08:44;;;;;;;9.73;5.57;;;15.10;99.90;;;;;;4986971;28;20073;-34
2023/10/01 02:11:10;;;;;;;10.10;5.88;;;15.10;99.90;;;;;;4987866;28;20096;-34
2023/10/01 02:13:41;;;;;;;11.63;5.70;;;15.10;99.90;;;;;;4987471;28;20062;-34
2023/10/01 02:16:30;;;;;;;10.35;5.82;;;15.10;99.90;;;;;;4988932;28;20106;-34
2023/10/01 02:19:21;;;;;;;10.80;6.28;;;15.10;99.90;;;;;;4988005;28;20050;-35
2023/10/01 02:21:52;;;;;;;11.02;5.63;;;15.10;99.90;;;;;;4988624;28;20535;-34
2023/10/01 02:24:23;;;;;;;10.98;5.93;;;15.10;99.90;;;;;;4968192;28;20058;-34
2023/10/01 02:26:58;;;;;;;7.93;4.88;;;15.10;99.90;;;;;;4986720;28;20456;-34
2023/10/01 02:29:31;;;;;;;10.95;5.15;;;15.10;99.90;;;;;;4999662;28;20050;-34
2023/10/01 02:32:04;;;;;;;8.80;5.10;;;15.10;99.90;;;;;;4982918;28;20101;-34
2023/10/01 02:34:31;;;;;;;;;;;15.10;99.90;;;;;;4979170;28;20064;-35
2023/10/01 02:36:58;;;;;;;11.60;5.60;;;15.00;99.90;;;;;;4977356;28;19941;-34
2023/10/01 02:39:27;;;;;;;10.70;6.03;;;15.00;99.90;;;;;;4980121;28;20093;-34
2023/10/01 02:44:53;;;;;;;8.52;5.15;;;15.00;99.90;;;;;;4967717;28;20054;-34
2023/10/01 02:47:20;;;;;;;10.35;5.47;;;15.00;99.90;;;;;;4977738;28;20093;-34
2023/10/01 02:49:49;;;;;;;9.50;4.90;;;15.00;99.90;;;;;;4978472;28;20050;-34
2023/10/01 02:52:39;;;;;;;12.40;4.57;;;15.00;99.90;;;;;;4976677;28;20058;-34
2023/10/01 02:55:17;;;;;;;8.50;4.63;;;15.00;99.90;;;;;;4976904;28;20097;-33
2023/10/01 02:57:44;;;;;;;8.88;5.25;;;15.00;99.90;;;;;;4978569;28;20070;-38
2023/10/01 03:02:38;;;;;;;7.35;4.05;;;15.00;99.90;;;;;;4979784;28;20058;-34
2023/10/01 03:05:08;;;;;;;12.02;5.22;;;15.00;99.90;;;;;;4982173;28;20581;-34
2023/10/01 03:07:45;;;;;;;8.85;4.40;;;15.00;99.90;;;;;;4984383;28;20078;-34
2023/10/01 03:10:24;;;;;;;8.10;4.35;;;15.00;99.90;;;;;;4980700;28;20056;-33
2023/10/01 03:12:57;;;;;;;8.63;4.72;;;15.00;99.90;;;;;;4985697;28;20054;-34
2023/10/01 03:15:35;;;;;;;;;;;15.00;99.90;;;;;;4987422;28;20054;-39
2023/10/01 03:18:07;;;;;;;7.72;4.80;;;15.00;99.90;;;;;;4982891;28;19921;-34
2023/10/01 03:25:59;;;;;;;8.52;4.43;;;15.10;99.90;;;;;;4982636;28;20046;-34
2023/10/01 03:28:28;;;;;;;8.35;4.25;;;15.10;99.90;;;;;;4985258;28;20813;-34
2023/10/01 03:31:06;;;;;;;8.93;4.40;;;15.00;99.90;;;;;;4985446;28;20097;-35
2023/10/01 03:33:39;;;;;;;9.32;3.60;;;15.10;99.90;;;;;;4986689;28;20484;-34
2023/10/01 03:36:10;;;;;;;8.10;4.57;;;15.10;99.90;;;;;;4986405;28;20496;-33
2023/10/01 03:38:45;;;;;;;9.20;4.22;;;15.10;99.90;;;;;;4984178;28;20163;-34
2023/10/01 03:41:21;;;;;;;6.68;4.47;;;15.10;99.90;;;;;;4987559;28;20496;-34
2023/10/01 03:43:51;;;;;;;8.02;3.67;;;15.10;99.90;;;;;;4987742;28;20050;-33
2023/10/01 03:48:59;;;;;;;9.07;4.32;;;15.10;99.90;;;;;;4986654;28;20050;-33
2023/10/01 03:54:19;;;;;;;8.50;3.93;;;15.10;99.90;;;;;;4985744;28;20050;-33
2023/10/01 03:56:56;;;;;;;6.82;3.80;;;15.10;99.90;;;;;;4988188;28;20054;-34
2023/10/01 03:59:23;;;;;;;8.02;3.85;;;15.00;99.90;;;;;;4985841;28;20496;-33
2023/10/01 04:01:58;;;;;;;8.10;3.80;;;15.00;99.90;;;;;;4983436;28;20491;-34
2023/10/01 04:04:27;;;;;;;7.68;4.10;;;15.00;99.90;;;;;;4983335;28;20058;-34
2023/10/01 04:06:55;;;;;;;8.52;4.07;;;15.00;99.90;;;;;;5000844;28;20081;-33
2023/10/01 04:09:26;;;;;;;9.05;4.45;;;15.00;99.90;;;;;;4986041;28;20062;-33
2023/10/01 04:12:18;;;;;;;6.28;3.92;;;15.00;99.90;;;;;;4983816;28;20042;-34
2023/10/01 04:14:48;;;;;;;10.35;4.28;;;15.00;99.90;;;;;;4983387;28;20054;-33
2023/10/01 04:17:17;;;;;;;10.38;4.15;;;15.00;99.90;;;;;;4983610;28;20432;-34
2023/10/01 04:19:49;;;;;;;8.18;3.72;;;15.00;99.90;;;;;;4986878;28;20074;-34
2023/10/01 04:22:21;;;;;;;10.02;3.97;;;15.00;99.90;;;;;;4984415;28;20616;-35
2023/10/01 04:25:00;;;;;;;9.13;3.67;;;15.00;99.90;;;;;;4976701;28;20058;-35
2023/10/01 04:27:34;;;;;;;6.13;3.63;;;15.00;99.90;;;;;;4987229;28;20086;-34
2023/10/01 04:30:01;;;;;;;7.70;4.00;;;15.00;99.90;;;;;;4985006;28;20050;-36
2023/10/01 04:32:27;;;;;;;10.63;4.72;;;15.00;99.90;;;;;;4984481;28;20054;-35
2023/10/01 04:35:01;;;;;;;7.93;4.18;;;15.00;99.90;;;;;;4968795;28;20084;-34
2023/10/01 04:37:40;;;;;;;6.28;3.45;;;15.00;99.90;;;;;;4976915;28;20082;-34
2023/10/01 04:42:56;;;;;;;10.48;3.80;;;15.00;99.90;;;;;;4977888;28;20142;-35
2023/10/01 04:45:24;;;;;;;9.20;4.05;;;15.00;99.90;;;;;;4981285;28;20515;-34
2023/10/01 04:47:56;;;;;;;8.00;4.00;;;15.00;99.90;;;;;;4979971;28;20737;-35
2023/10/01 04:50:29;;;;;;;8.65;4.25;;;15.00;99.90;;;;;;4979511;28;20472;-34
2023/10/01 04:52:59;;;;;;;7.68;3.83;;;15.00;99.90;;;;;;4976386;28;20058;-35
2023/10/01 04:55:28;;;;;;;8.23;4.38;;;15.00;99.90;;;;;;4978534;28;20053;-34
2023/10/01 04:57:57;;;;;;;8.55;4.30;;;15.00;99.90;;;;;;4982856;28;20639;-35
2023/10/01 05:00:24;;;;;;;8.38;4.13;;;15.00;99.90;;;;;;4976568;28;20061;-35
2023/10/01 05:02:51;;;;;;;8.80;3.75;;;14.90;99.90;;;;;;4976564;28;20105;-35
2023/10/01 05:05:25;;;;;;;8.77;3.58;;;14.90;99.90;;;;;;4985010;28;20046;-37
2023/10/01 05:07:59;;;;;;;8.70;4.10;;;14.90;99.90;;;;;;4986593;28;20447;-37
2023/10/01 05:10:28;;;;;;;7.90;3.50;;;14.90;99.90;;;;;;4977826;28;20070;-35
2023/10/01 05:12:58;;;;;;;9.25;3.78;;;14.90;99.90;;;;;;4997194;28;20196;-36
2023/10/01 05:15:26;;;;;;;8.02;3.67;;;14.90;99.90;;;;;;4983186;28;20582;-35
2023/10/01 05:17:55;;;;;;;9.93;3.97;;;14.90;99.90;;;;;;4985913;28;20485;-35
2023/10/01 05:20:23;;;;;;;9.35;3.90;;;14.90;99.90;;;;;;4982471;28;20058;-36
2023/10/01 05:22:54;;;;;;;9.25;4.28;;;14.90;99.90;;;;;;4986906;28;20764;-35
2023/10/01 05:25:24;;;;;;;8.63;4.25;;;14.90;99.90;;;;;;4985166;28;20042;-34
2023/10/01 05:27:54;;;;;;;6.85;3.70;;;14.90;99.90;;;;;;4969922;28;20058;-35
2023/10/01 05:30:34;;;;;;;8.80;3.65;;;14.90;99.90;;;;;;4986114;28;20140;-35
2023/10/01 05:33:05;;;;;;;11.65;3.88;;;14.90;99.90;;;;;;4985374;28;20412;-35
2023/10/01 05:35:35;;;;;;;10.15;3.47;;;14.90;99.90;;;;;;4986831;28;20117;-35
2023/10/01 05:38:04;;;;;;;9.75;3.95;;;14.90;99.90;;;;;;4984947;28;20053;-35
2023/10/01 05:40:34;;;;;;;6.63;3.30;;;14.90;99.90;;;;;;4985430;28;20065;-36
2023/10/01 05:43:12;;;;;;;8.88;3.83;;;14.90;99.90;;;;;;4986232;28;20124;-35
2023/10/01 05:45:41;;;;;;;10.80;4.28;;;14.90;99.90;;;;;;4988386;28;20050;-41
2023/10/01 05:48:18;;;;;;;8.35;3.30;;;14.90;99.90;;;;;;4987460;28;20046;-34
2023/10/01 05:50:44;;;;;;;9.20;3.83;;;14.90;99.90;;;;;;4986383;28;20046;-34
2023/10/01 05:53:13;;;;;;;10.98;3.95;;;14.90;99.90;;;;;;4985762;28;20050;-34
2023/10/01 05:55:39;;;;;;;7.38;3.50;;;15.00;99.90;;;;;;4982192;28;20141;-34
2023/10/01 05:58:16;;;;;;;8.20;3.80;;;14.90;99.90;;;;;;4988114;28;20057;-34
2023/10/01 06:00:56;;;;;;;9.60;3.80;;;14.90;99.90;;;;;;4981576;28;20050;-34
2023/10/01 06:03:23;;;;;;;7.25;3.35;;;15.00;99.90;;;;;;4986494;28;20488;-34
2023/10/01 06:05:50;;;;;;;10.68;4.00;;;14.90;99.90;;;;;;4983957;28;20058;-34
2023/10/01 06:08:24;;;;;;;7.25;3.53;;;14.90;99.90;;;;;;4986036;28;20054;-34
2023/10/01 06:11:04;;;;;;;7.63;3.08;;;14.90;99.90;;;;;;4985196;28;20141;-34
2023/10/01 06:13:34;;;;;;;9.25;3.55;;;14.90;99.90;;;;;;4984598;28;20507;-34
2023/10/01 06:16:16;;;;;;;9.52;4.25;;;15.00;99.90;;;;;;4981696;28;20050;-34
2023/10/01 06:18:56;;;;;;;11.00;4.05;;;15.00;99.90;;;;;;4983452;28;20059;-34
2023/10/01 06:21:27;;;;;;;10.43;4.47;;;15.00;99.90;;;;;;4987396;28;20049;-34
2023/10/01 06:23:58;;;;;;;10.95;3.95;;;15.00;99.90;;;;;;4983861;28;20038;-34
2023/10/01 06:26:33;;;;;;;7.10;3.30;;;15.00;99.90;;;;;;4969169;28;20054;-34
2023/10/01 06:29:02;;;;;;;8.18;3.58;;;15.00;99.90;;;;;;4983457;28;20082;-34
2023/10/01 06:31:29;;;;;;;9.32;3.72;;;15.00;99.90;;;;;;4985282;28;20046;-34
2023/10/01 06:33:55;;;;;;;9.10;3.28;;;15.10;99.90;;;;;;4981095;28;20053;-34
2023/10/01 06:36:21;;;;;;;7.85;3.60;;;15.10;99.90;;;;;;5002951;28;20050;-34
2023/10/01 06:38:48;;;;;;;6.78;3.30;;;15.10;99.90;;;;;;4986751;28;20077;-34
2023/10/01 06:41:19;;;;;;;7.45;3.20;;;15.10;99.90;;;;;;4988316;28;20637;-34
2023/10/01 06:43:49;;;;;;;12.27;3.20;;;15.20;99.90;;;;;;4983673;28;20133;-34
2023/10/01 06:46:19;;;;;;;10.32;3.60;;;15.10;99.90;;;;;;4985792;28;20054;-34
2023/10/01 06:49:08;;;;;;;7.95;3.42;;;15.20;99.90;;;;;;4966691;28;20189;-34
2023/10/01 06:51:43;;;;;;;10.70;3.78;;;15.20;99.90;;;;;;4985807;28;20050;-34
2023/10/01 06:54:10;;;;;;;7.25;2.97;;;15.30;99.90;;;;;;4987653;28;20505;-34
2023/10/01 06:56:38;;;;;;;6.60;2.92;;;15.20;99.90;;;;;;4986152;28;20050;-35
2023/10/01 07:01:46;;;;;;;6.95;3.03;;;15.30;99.90;;;;;;4980831;28;20069;-36
2023/10/01 07:04:17;;;;;;;7.38;3.15;;;15.40;99.90;;;;;;4985403;28;20377;-38
2023/10/01 07:06:44;;;;;;;9.07;3.38;;;15.40;99.90;;;;;;4988636;28;20058;-35
2023/10/01 07:09:32;;;;;;;7.80;2.92;;;15.40;99.90;;;;;;4979729;28;20050;-34
2023/10/01 07:11:59;;;;;;;6.82;3.00;;;15.50;99.90;;;;;;4982623;28;20042;-35
2023/10/01 07:14:45;;;;;;;10.93;3.80;;;15.50;99.90;;;;;;4986836;28;20046;-34
2023/10/01 07:17:18;;;;;;;8.32;3.42;;;15.50;99.90;;;;;;4978804;28;20053;-35
2023/10/01 07:19:45;;;;;;;8.88;3.67;;;15.50;99.90;;;;;;4987756;28;20046;-35
2023/10/01 07:22:14;;;;;;;8.05;2.85;;;15.60;99.90;;;;;;4983042;28;20054;-34
2023/10/01 07:24:40;;;;;;;9.93;3.58;;;15.60;99.90;;;;;;4982383;28;20116;-34
2023/10/01 07:27:11;;;;;;;8.85;3.10;;;15.60;99.90;;;;;;4983653;28;20085;-34
2023/10/01 07:29:42;;;;;;;7.10;2.40;;;15.60;99.90;;;;;;4985282;28;20469;-34
2023/10/01 07:32:12;;;;;;;9.15;3.60;;;15.70;99.90;;;;;;4988188;28;20471;-34
2023/10/01 07:34:48;;;;;;;10.52;3.33;;;15.70;99.90;;;;;;4982596;28;20112;-34
2023/10/01 07:37:23;;;;;;;7.93;2.95;;;15.70;99.90;;;;;;4988368;28;20068;-34
2023/10/01 07:39:59;;;;;;;7.75;2.95;;;15.80;99.90;;;;;;4980787;28;20054;-40
2023/10/01 07:42:28;;;;;;;8.25;3.08;;;15.80;99.90;;;;;;4985421;28;20057;-35
2023/10/01 07:44:56;;;;;;;9.73;3.30;;;15.90;99.90;;;;;;4978557;28;20050;-34
2023/10/01 07:47:28;;;;;;;7.25;2.83;;;15.90;99.90;;;;;;4983003;28;20150;-35
2023/10/01 07:50:05;;;;;;;10.13;2.88;;;15.90;99.90;;;;;;4985779;28;20046;-35
2023/10/01 07:52:36;;;;;;;7.30;3.00;;;16.00;99.90;;;;;;4976151;28;20136;-34
2023/10/01 07:55:29;;;;;;;7.60;2.45;;;16.00;99.90;;;;;;4968547;28;20054;-34
2023/10/01 07:57:51;;;;;;;7.05;3.17;;;16.00;99.90;;;;;;4966681;28;20054;-34
2023/10/01 08:00:26;;;;;;;10.35;3.75;;;16.10;99.90;;;;;;4984298;28;22116;-34
2023/10/01 08:03:28;;;;;;;8.63;3.42;;;16.20;99.90;;;;;;4981484;28;20078;-34
2023/10/01 08:05:50;;;;;;;10.85;3.35;;;16.20;99.90;;;;;;4982121;28;20153;-35
2023/10/01 08:11:37;;;;;;;10.20;3.20;;;16.30;99.90;;;;;;4984937;28;20050;-35
2023/10/01 08:13:49;;;;;;;8.43;3.08;;;16.40;99.90;;;;;;4983951;28;20057;-35
2023/10/01 08:16:15;;;;;;;9.13;2.70;;;16.50;99.90;;;;;;4987132;28;20042;-35
2023/10/01 08:18:46;;;;;;;7.80;3.15;;;16.60;99.90;;;;;;4980159;28;20156;-35
2023/10/01 08:21:18;;;;;;;7.97;3.45;;;16.70;99.90;;;;;;4981017;28;20061;-35
2023/10/01 08:23:54;;;;;;;10.07;3.25;;;16.70;99.90;;;;;;4982354;28;20152;-35
2023/10/01 08:29:06;;;;;;;8.30;2.75;;;16.90;99.90;;;;;;4985059;28;20054;-35
2023/10/01 08:34:24;;;;;;;9.98;3.25;;;16.90;99.90;;;;;;4984334;28;20070;-35
2023/10/01 08:36:58;;;;;;;8.27;3.08;;;17.00;99.90;;;;;;4984447;28;20050;-35
2023/10/01 08:39:34;;;;;;;10.43;3.05;;;17.10;99.90;;;;;;4980982;28;20058;-34
2023/10/01 08:42:08;;;;;;;7.43;3.50;;;17.20;99.90;;;;;;4984257;28;20060;-35
2023/10/01 08:45:03;;;;;;;8.70;2.88;;;17.20;99.90;;;;;;4962898;28;20054;-35
2023/10/01 08:47:37;;;;;;;9.23;3.15;;;17.30;99.90;;;;;;4985504;28;20058;-35
2023/10/01 08:52:56;;;;;;;7.80;3.20;;;17.30;99.90;;;;;;4985343;28;20058;-35
2023/10/01 08:55:39;;;;;;;9.43;3.05;;;17.40;99.90;;;;;;4986147;28;20129;-35
2023/10/01 09:00:56;;;;;;;9.07;3.17;;;17.50;99.90;;;;;;4989109;28;19925;-35
2023/10/01 09:03:26;;;;;;;11.57;3.50;;;17.70;99.90;;;;;;4980894;28;20043;-34
2023/10/01 09:06:06;;;;;;;8.52;3.30;;;17.90;99.90;;;;;;4970955;28;20188;-35
2023/10/01 09:08:33;;;;;;;9.38;3.13;;;18.00;99.90;;;;;;4987107;28;20042;-36
2023/10/01 09:11:12;;;;;;;7.35;3.30;;;18.10;99.90;;;;;;4986449;28;20057;-35
2023/10/01 09:16:42;;;;;;;10.02;3.08;;;18.30;99.90;;;;;;4988384;28;21441;-36
2023/10/01 09:21:55;;;;;;;7.93;3.15;;;18.50;99.90;;;;;;4984532;28;20555;-35
2023/10/01 09:24:55;;;;;;;12.57;3.40;;;18.50;99.90;;;;;;4984516;28;20058;-37
2023/10/01 09:27:30;;;;;;;11.93;3.38;;;18.60;99.90;;;;;;4988013;28;20112;-35
2023/10/01 09:30:26;;;;;;;12.35;3.75;;;18.70;99.90;;;;;;4990779;28;20193;-35
2023/10/01 09:32:57;;;;;;;8.00;3.08;;;18.70;99.90;;;;;;4988911;28;20061;-35
2023/10/01 09:35:39;;;;;;;13.98;3.95;;;18.70;99.90;;;;;;4982320;28;20046;-35
2023/10/01 09:38:12;;;;;;;8.73;3.53;;;18.70;99.90;;;;;;4986929;28;20065;-37
2023/10/01 09:40:42;;;;;;;9.73;3.60;;;18.60;99.90;;;;;;4987985;28;20065;-35
2023/10/01 09:43:18;;;;;;;8.35;3.40;;;18.70;99.90;;;;;;4982641;28;20074;-34
2023/10/01 09:45:49;;;;;;;8.98;3.35;;;18.60;99.90;;;;;;4986631;28;20043;-34
2023/10/01 09:48:29;;;;;;;8.30;3.20;;;18.60;99.90;;;;;;4982930;28;20503;-36
2023/10/01 09:51:17;;;;;;;7.10;3.00;;;18.60;99.90;;;;;;4985321;28;20153;-34
2023/10/01 09:53:55;;;;;;;10.88;3.28;;;18.60;99.90;;;;;;4989797;28;20053;-34
2023/10/01 09:59:19;;;;;;;11.80;4.30;;;18.70;99.90;;;;;;4975827;28;20046;-34
2023/10/01 10:01:47;;;;;;;8.48;3.47;;;18.80;99.90;;;;;;4984755;28;20129;-34
2023/10/01 10:04:20;;;;;;;11.13;3.58;;;18.90;99.90;;;;;;4988415;28;20050;-34
2023/10/01 10:06:59;;;;;;;11.35;3.47;;;18.90;99.90;;;;;;4986039;28;20058;-34
2023/10/01 10:09:26;;;;;;;10.48;3.40;;;19.00;99.90;;;;;;4970685;28;20478;-35
2023/10/01 10:11:53;;;;;;;9.10;3.30;;;19.10;99.90;;;;;;4986314;28;20120;-35
2023/10/01 10:14:25;;;;;;;8.65;3.90;;;19.20;99.90;;;;;;4987274;28;20078;-35
2023/10/01 10:17:07;;;;;;;7.70;3.42;;;19.30;99.90;;;;;;4985821;28;20116;-35
2023/10/01 10:19:47;;;;;;;11.88;4.20;;;19.30;99.90;;;;;;4986555;28;20054;-36
2023/10/01 10:22:16;;;;;;;11.23;4.00;;;19.40;99.90;;;;;;4982369;28;20165;-35
2023/10/01 10:24:46;;;;;;;10.80;3.63;;;19.40;99.90;;;;;;4988378;28;20060;-36
2023/10/01 10:27:17;;;;;;;10.27;3.80;;;19.50;99.90;;;;;;4986670;28;20054;-36
2023/10/01 10:29:57;;;;;;;8.30;3.00;;;19.60;99.90;;;;;;4986565;28;20061;-36
2023/10/01 10:32:28;;;;;;;12.65;3.92;;;19.70;99.90;;;;;;4982508;28;20094;-35
2023/10/01 10:35:14;;;;;;;9.10;3.77;;;19.90;99.90;;;;;;4984561;28;20058;-36
2023/10/01 10:37:56;;;;;;;8.43;3.60;;;20.00;99.90;;;;;;4978211;28;20058;-36
2023/10/01 10:40:23;;;;;;;8.88;3.55;;;20.10;99.90;;;;;;4985973;28;20069;-35
2023/10/01 10:43:02;;;;;;;8.95;3.30;;;20.20;99.90;;;;;;4984489;28;20112;-36
2023/10/01 10:45:47;;;;;;;11.80;4.53;;;20.20;99.90;;;;;;4985071;28;20046;-36
2023/10/01 10:48:21;;;;;;;9.82;3.90;;;20.30;99.90;;;;;;4984009;28;20062;-36
2023/10/01 10:50:50;;;;;;;9.98;3.92;;;20.40;99.90;;;;;;4984382;28;20069;-35
2023/10/01 10:53:24;;;;;;;8.50;3.53;;;20.60;99.90;;;;;;4987067;28;20054;-33
2023/10/01 10:56:00;;;;;;;8.55;3.53;;;20.70;99.90;;;;;;4967220;28;20065;-35
2023/10/01 10:58:29;;;;;;;8.48;3.50;;;20.70;99.90;;;;;;4985720;28;20141;-35
2023/10/01 11:00:55;;;;;;;9.02;3.72;;;20.70;99.90;;;;;;4986565;28;20058;-35
2023/10/01 11:03:42;;;;;;;10.20;3.80;;;20.70;99.90;;;;;;4985798;28;20211;-35
2023/10/01 11:06:18;;;;;;;9.73;3.40;;;20.70;99.90;;;;;;4984565;28;20063;-35
2023/10/01 11:08:52;;;;;;;10.10;3.60;;;20.70;99.90;;;;;;4966803;28;20162;-35
2023/10/01 11:11:22;;;;;;;9.38;3.50;;;20.70;99.90;;;;;;4981767;28;20065;-35
2023/10/01 11:13:59;;;;;;;7.63;3.25;;;20.80;99.90;;;;;;4986757;28;20575;-35
2023/10/01 11:16:33;;;;;;;9.98;3.30;;;20.90;99.90;;;;;;4980083;28;20054;-37
2023/10/01 11:19:12;;;;;;;10.43;3.40;;;20.90;99.90;;;;;;4984791;28;20053;-35
2023/10/01 11:21:59;;;;;;;9.63;3.65;;;21.00;99.90;;;;;;4984310;28;20058;-34
2023/10/01 11:24:39;;;;;;;8.23;3.20;;;21.20;99.90;;;;;;4984993;28;20050;-35
2023/10/01 11:27:22;;;;;;;7.72;2.90;;;21.30;99.90;;;;;;4986678;28;20046;-35
2023/10/01 11:29:58;;;;;;;8.73;3.13;;;21.50;99.90;;;;;;4980812;28;20765;-35
2023/10/01 11:32:58;;;;;;;9.65;3.65;;;21.60;99.90;;;;;;4983873;28;20132;-36
2023/10/01 11:35:31;;;;;;;10.13;3.50;;;21.70;99.90;;;;;;4983676;28;20108;-36
2023/10/01 11:37:58;;;;;;;11.30;3.63;;;21.80;99.90;;;;;;4987234;28;20054;-35
2023/10/01 11:41:06;;;;;;;11.10;3.80;;;21.90;99.90;;;;;;4978318;28;20120;-35
2023/10/01 11:43:23;;;;;;;9.30;3.25;;;22.00;99.90;;;;;;4985868;28;20085;-35
2023/10/01 11:46:18;;;;;;;13.13;3.40;;;22.10;99.90;;;;;;4981790;28;20525;-36
2023/10/01 11:48:56;;;;;;;7.35;3.33;;;22.30;99.90;;;;;;4980332;28;20099;-36
2023/10/01 11:51:33;;;;;;;7.47;2.95;;;22.50;99.90;;;;;;4979223;28;20496;-35
2023/10/01 11:54:09;;;;;;;8.45;3.22;;;22.60;99.90;;;;;;4978435;28;20058;-35
2023/10/01 11:57:07;;;;;;;8.18;3.05;;;22.60;99.90;;;;;;4978457;28;20412;-37
2023/10/01 11:59:35;;;;;;;8.38;2.80;;;22.70;99.90;;;;;;4997965;28;20108;-34
2023/10/01 12:02:20;;;;;;;7.93;3.10;;;22.80;99.90;;;;;;4980550;28;20568;-35
2023/10/01 12:04:51;;;;;;;9.57;3.83;;;22.90;99.90;;;;;;4981039;28;20062;-36
2023/10/01 12:07:17;;;;;;;9.20;3.28;;;22.90;99.90;;;;;;4985239;28;20061;-36
2023/10/01 12:09:51;;;;;;;7.68;3.03;;;22.90;99.90;;;;;;4981548;28;20053;-36
2023/10/01 12:12:28;;;;;;;12.32;3.47;;;22.90;99.90;;;;;;4981859;28;20054;-35
2023/10/01 12:14:57;;;;;;;9.02;3.83;;;23.00;99.90;;;;;;4974272;28;20085;-54
2023/10/01 12:17:27;;;;;;;8.43;3.40;;;23.00;99.90;;;;;;4980444;28;20527;-34
2023/10/01 12:20:03;;;;;;;7.47;3.40;;;22.90;99.90;;;;;;4975734;28;20054;-35
2023/10/01 12:22:30;;;;;;;8.38;2.97;;;22.90;99.90;;;;;;4977660;28;20055;-35
2023/10/01 12:24:59;;;;;;;9.82;3.60;;;22.90;99.90;;;;;;4973767;28;20062;-36
2023/10/01 12:27:47;;;;;;;9.35;3.50;;;22.90;99.90;;;;;;4985585;28;20054;-34
2023/10/01 12:30:27;;;;;;;11.15;3.50;;;22.90;99.90;;;;;;4984011;28;20076;-34
2023/10/01 12:33:05;;;;;;;9.25;3.30;;;23.10;99.90;;;;;;4981692;28;20054;-35
2023/10/01 12:35:34;;;;;;;8.80;3.85;;;23.30;99.90;;;;;;4987409;28;20407;-34
2023/10/01 12:40:52;;;;;;;7.57;3.10;;;23.60;99.90;;;;;;4988158;28;20046;-34
2023/10/01 12:43:36;;;;;;;7.65;3.38;;;23.60;99.90;;;;;;4988152;28;20179;-34
2023/10/01 12:46:13;;;;;;;9.20;3.60;;;23.80;99.90;;;;;;4987272;28;20070;-34
2023/10/01 12:49:12;;;;;;;8.70;3.33;;;23.80;99.90;;;;;;4984619;28;20062;-34
2023/10/01 12:51:33;;;;;;;8.80;3.45;;;23.60;99.90;;;;;;4985338;28;20149;-34
2023/10/01 12:53:59;;;;;;;7.10;3.08;;;23.60;99.90;;;;;;4990564;28;20089;-34
2023/10/01 12:56:44;;;;;;;7.20;3.30;;;23.70;99.90;;;;;;4977280;28;20073;-35
2023/10/01 12:59:19;;;;;;;7.85;3.35;;;23.60;99.90;;;;;;4965514;28;20107;-34
2023/10/01 13:01:51;;;;;;;7.97;3.30;;;23.70;99.90;;;;;;4980190;28;20058;-35
2023/10/01 13:04:25;;;;;;;6.80;2.88;;;23.60;99.90;;;;;;4989274;28;20050;-34
2023/10/01 13:06:53;;;;;;;6.80;3.00;;;23.50;99.90;;;;;;4985006;28;20058;-34
2023/10/01 13:12:25;;;;;;;9.23;3.28;;;23.70;99.90;;;;;;4925541;28;20070;-34
2023/10/01 13:17:43;;;;;;;11.32;3.80;;;24.00;99.90;;;;;;4988437;28;20492;-35
2023/10/01 13:20:19;;;;;;;7.32;3.65;;;24.30;99.90;;;;;;4987580;28;20061;-35
2023/10/01 13:22:52;;;;;;;8.90;3.88;;;24.50;99.90;;;;;;4988577;28;20050;-34
2023/10/01 13:25:24;;;;;;;8.85;3.70;;;24.80;99.90;;;;;;4984668;28;20108;-35
2023/10/01 13:28:01;;;;;;;8.32;3.72;;;25.10;99.90;;;;;;4986811;28;20057;-35
2023/10/01 13:30:30;;;;;;;8.15;3.65;;;25.30;99.90;;;;;;4984834;28;20496;-35
2023/10/01 13:33:14;;;;;;;9.88;3.85;;;25.70;99.90;;;;;;4988215;28;20250;-35
2023/10/01 13:35:50;;;;;;;9.63;4.38;;;25.60;99.90;;;;;;4986614;28;20145;-35
2023/10/01 14:11:02;;;;;;;8.50;4.30;;;23.70;99.90;;;;;;4988357;28;20834;-35
2023/10/01 14:13:46;;;;;;;9.30;4.03;;;23.70;99.90;;;;;;4985540;28;20058;-35
2023/10/01 14:16:12;;;;;;;10.18;4.07;;;23.60;99.90;;;;;;4987178;28;20053;-35
2023/10/01 14:18:53;;;;;;;11.38;4.20;;;23.60;99.90;;;;;;4989307;28;20050;-35
2023/10/01 14:21:25;;;;;;;9.30;4.20;;;23.60;99.90;;;;;;4985891;28;20050;-35
2023/10/01 14:23:52;;;;;;;8.75;3.95;;;23.80;99.90;;;;;;4985322;28;20047;-35
2023/10/01 14:26:21;;;;;;;13.20;5.20;;;23.90;99.90;;;;;;4987001;28;20069;-35
2023/10/01 14:28:49;;;;;;;8.90;4.75;;;24.10;99.90;;;;;;4986552;28;20077;-35
2023/10/01 14:34:03;;;;;;;8.48;4.25;;;24.20;99.90;;;;;;4985770;28;20054;-35
2023/10/01 14:36:29;;;;;;;11.15;4.70;;;24.10;99.90;;;;;;4986841;28;20047;-35
2023/10/01 14:38:58;;;;;;;12.70;5.55;;;24.00;99.90;;;;;;4987575;28;20092;-35
2023/10/01 14:41:28;;;;;;;9.82;4.40;;;23.70;99.90;;;;;;4985382;28;20141;-34
2023/10/01 14:43:54;;;;;;;8.70;4.15;;;23.60;99.90;;;;;;4989312;28;20074;-35
2023/10/01 14:46:22;;;;;;;10.77;4.35;;;23.40;99.90;;;;;;4985167;28;20137;-43